sensor_id;sensor_type;location;lat;lon;timestamp;P1;durP1;ratioP1;P2;durP2;ratioP2
36391;SDS011;22639;42.690;23.356;2022-07-05T00:00:11;2.50;;;2.30;;
36391;SDS011;22639;42.690;23.356;2022-07-05T00:02:36;2.90;;;2.60;;
36391;SDS011;22639;42.690;23.356;2022-07-05T00:05:02;2.60;;;2.40;;
36391;SDS011;22639;42.690;23.356;2022-07-05T00:07:28;2.65;;;2.38;;
36391;SDS011;22639;42.690;23.356;2022-07-05T00:09:55;2.63;;;2.42;;
36391;SDS011;22639;42.690;23.356;2022-07-05T00:12:24;3.17;;;2.53;;
36391;SDS011;22639;42.690;23.356;2022-07-05T00:14:52;2.30;;;2.10;;
36391;SDS011;22639;42.690;23.356;2022-07-05T00:17:18;5.75;;;2.53;;
36391;SDS011;22639;42.690;23.356;2022-07-05T00:19:43;4.78;;;2.70;;
36391;SDS011;22639;42.690;23.356;2022-07-05T00:22:09;2.65;;;2.45;;
36391;SDS011;22639;42.690;23.356;2022-07-05T00:24:35;2.97;;;2.28;;
36391;SDS011;22639;42.690;23.356;2022-07-05T00:27:00;3.35;;;2.50;;
36391;SDS011;22639;42.690;23.356;2022-07-05T00:29:26;2.60;;;2.40;;
36391;SDS011;22639;42.690;23.356;2022-07-05T00:31:52;3.35;;;3.00;;
36391;SDS011;22639;42.690;23.356;2022-07-05T00:34:18;4.63;;;2.95;;
36391;SDS011;22639;42.690;23.356;2022-07-05T00:36:43;3.40;;;3.05;;
36391;SDS011;22639;42.690;23.356;2022-07-05T00:39:09;5.10;;;3.55;;
36391;SDS011;22639;42.690;23.356;2022-07-05T00:41:35;3.90;;;3.50;;
36391;SDS011;22639;42.690;23.356;2022-07-05T00:44:05;3.67;;;3.30;;
36391;SDS011;22639;42.690;23.356;2022-07-05T00:46:33;5.13;;;3.70;;
36391;SDS011;22639;42.690;23.356;2022-07-05T00:49:00;5.05;;;3.42;;
36391;SDS011;22639;42.690;23.356;2022-07-05T00:51:26;3.90;;;3.22;;
36391;SDS011;22639;42.690;23.356;2022-07-05T00:53:54;3.60;;;3.00;;
36391;SDS011;22639;42.690;23.356;2022-07-05T00:56:20;3.83;;;3.03;;
36391;SDS011;22639;42.690;23.356;2022-07-05T00:58:48;7.07;;;2.90;;
36391;SDS011;22639;42.690;23.356;2022-07-05T01:01:14;2.40;;;2.20;;
36391;SDS011;22639;42.690;23.356;2022-07-05T01:03:41;3.13;;;2.60;;
36391;SDS011;22639;42.690;23.356;2022-07-05T01:06:08;3.05;;;2.67;;
36391;SDS011;22639;42.690;23.356;2022-07-05T01:08:40;2.85;;;2.58;;
36391;SDS011;22639;42.690;23.356;2022-07-05T01:11:06;4.88;;;2.85;;
36391;SDS011;22639;42.690;23.356;2022-07-05T01:13:35;5.47;;;2.72;;
36391;SDS011;22639;42.690;23.356;2022-07-05T01:16:02;2.60;;;2.40;;
36391;SDS011;22639;42.690;23.356;2022-07-05T01:18:28;3.38;;;3.08;;
36391;SDS011;22639;42.690;23.356;2022-07-05T01:20:54;3.63;;;2.55;;
36391;SDS011;22639;42.690;23.356;2022-07-05T01:23:19;4.57;;;3.10;;
36391;SDS011;22639;42.690;23.356;2022-07-05T01:25:46;4.85;;;2.60;;
36391;SDS011;22639;42.690;23.356;2022-07-05T01:28:12;3.35;;;2.90;;
36391;SDS011;22639;42.690;23.356;2022-07-05T01:30:38;3.13;;;2.40;;
36391;SDS011;22639;42.690;23.356;2022-07-05T01:33:05;3.38;;;2.83;;
36391;SDS011;22639;42.690;23.356;2022-07-05T01:35:32;2.97;;;2.65;;
36391;SDS011;22639;42.690;23.356;2022-07-05T01:37:58;3.10;;;2.67;;
36391;SDS011;22639;42.690;23.356;2022-07-05T01:40:23;3.60;;;2.80;;
36391;SDS011;22639;42.690;23.356;2022-07-05T01:42:49;2.15;;;1.95;;
36391;SDS011;22639;42.690;23.356;2022-07-05T01:45:15;5.78;;;2.97;;
36391;SDS011;22639;42.690;23.356;2022-07-05T01:48:02;2.90;;;2.60;;
36391;SDS011;22639;42.690;23.356;2022-07-05T01:50:31;2.60;;;2.35;;
36391;SDS011;22639;42.690;23.356;2022-07-05T01:53:00;6.03;;;2.10;;
36391;SDS011;22639;42.690;23.356;2022-07-05T01:55:28;2.67;;;2.45;;
36391;SDS011;22639;42.690;23.356;2022-07-05T01:57:53;3.08;;;2.33;;
36391;SDS011;22639;42.690;23.356;2022-07-05T02:00:19;2.53;;;2.33;;
36391;SDS011;22639;42.690;23.356;2022-07-05T02:02:45;3.85;;;2.40;;
36391;SDS011;22639;42.690;23.356;2022-07-05T02:05:12;2.50;;;2.30;;
36391;SDS011;22639;42.690;23.356;2022-07-05T02:07:45;2.70;;;2.17;;
36391;SDS011;22639;42.690;23.356;2022-07-05T02:10:14;2.65;;;2.30;;
36391;SDS011;22639;42.690;23.356;2022-07-05T02:12:40;3.35;;;2.15;;
36391;SDS011;22639;42.690;23.356;2022-07-05T02:15:06;4.53;;;2.55;;
36391;SDS011;22639;42.690;23.356;2022-07-05T02:17:32;2.85;;;2.60;;
36391;SDS011;22639;42.690;23.356;2022-07-05T02:19:58;4.20;;;2.75;;
36391;SDS011;22639;42.690;23.356;2022-07-05T02:22:23;3.78;;;2.55;;
36391;SDS011;22639;42.690;23.356;2022-07-05T02:24:49;7.05;;;2.85;;
36391;SDS011;22639;42.690;23.356;2022-07-05T02:27:15;3.05;;;2.65;;
36391;SDS011;22639;42.690;23.356;2022-07-05T02:29:40;3.38;;;3.00;;
36391;SDS011;22639;42.690;23.356;2022-07-05T02:32:06;4.80;;;3.28;;
36391;SDS011;22639;42.690;23.356;2022-07-05T02:34:31;4.65;;;2.97;;
36391;SDS011;22639;42.690;23.356;2022-07-05T02:36:57;6.78;;;3.38;;
36391;SDS011;22639;42.690;23.356;2022-07-05T02:39:22;6.05;;;3.00;;
36391;SDS011;22639;42.690;23.356;2022-07-05T02:41:48;4.35;;;3.10;;
36391;SDS011;22639;42.690;23.356;2022-07-05T02:44:13;2.80;;;2.60;;
36391;SDS011;22639;42.690;23.356;2022-07-05T02:46:39;2.78;;;2.45;;
36391;SDS011;22639;42.690;23.356;2022-07-05T02:49:04;4.93;;;2.58;;
36391;SDS011;22639;42.690;23.356;2022-07-05T02:51:30;3.80;;;2.75;;
36391;SDS011;22639;42.690;23.356;2022-07-05T02:53:55;2.90;;;2.70;;
36391;SDS011;22639;42.690;23.356;2022-07-05T02:56:21;5.05;;;3.05;;
36391;SDS011;22639;42.690;23.356;2022-07-05T02:58:46;7.63;;;6.80;;
36391;SDS011;22639;42.690;23.356;2022-07-05T03:01:12;9.90;;;9.07;;
36391;SDS011;22639;42.690;23.356;2022-07-05T03:03:37;4.95;;;4.53;;
36391;SDS011;22639;42.690;23.356;2022-07-05T03:06:03;5.55;;;3.60;;
36391;SDS011;22639;42.690;23.356;2022-07-05T03:08:28;8.63;;;4.15;;
36391;SDS011;22639;42.690;23.356;2022-07-05T03:10:54;6.70;;;5.13;;
36391;SDS011;22639;42.690;23.356;2022-07-05T03:13:19;5.63;;;4.65;;
36391;SDS011;22639;42.690;23.356;2022-07-05T03:15:44;4.72;;;3.45;;
36391;SDS011;22639;42.690;23.356;2022-07-05T03:18:10;6.93;;;3.25;;
36391;SDS011;22639;42.690;23.356;2022-07-05T03:20:35;6.30;;;3.53;;
36391;SDS011;22639;42.690;23.356;2022-07-05T03:23:01;7.90;;;3.10;;
36391;SDS011;22639;42.690;23.356;2022-07-05T03:25:26;5.45;;;3.97;;
36391;SDS011;22639;42.690;23.356;2022-07-05T03:27:53;6.93;;;3.80;;
36391;SDS011;22639;42.690;23.356;2022-07-05T03:30:18;4.85;;;3.30;;
36391;SDS011;22639;42.690;23.356;2022-07-05T03:32:44;6.60;;;3.55;;
36391;SDS011;22639;42.690;23.356;2022-07-05T03:35:10;4.28;;;3.50;;
36391;SDS011;22639;42.690;23.356;2022-07-05T03:37:35;4.70;;;4.05;;
36391;SDS011;22639;42.690;23.356;2022-07-05T03:40:01;7.60;;;3.30;;
36391;SDS011;22639;42.690;23.356;2022-07-05T03:42:26;5.60;;;3.42;;
36391;SDS011;22639;42.690;23.356;2022-07-05T03:44:52;3.85;;;3.28;;
36391;SDS011;22639;42.690;23.356;2022-07-05T03:47:17;3.80;;;3.17;;
36391;SDS011;22639;42.690;23.356;2022-07-05T03:49:44;4.10;;;3.15;;
36391;SDS011;22639;42.690;23.356;2022-07-05T03:52:09;3.70;;;3.40;;
36391;SDS011;22639;42.690;23.356;2022-07-05T03:54:35;6.03;;;3.33;;
36391;SDS011;22639;42.690;23.356;2022-07-05T03:57:00;3.90;;;3.38;;
36391;SDS011;22639;42.690;23.356;2022-07-05T03:59:26;6.50;;;3.60;;
36391;SDS011;22639;42.690;23.356;2022-07-05T04:01:51;5.78;;;3.47;;
36391;SDS011;22639;42.690;23.356;2022-07-05T04:04:17;3.65;;;3.22;;
36391;SDS011;22639;42.690;23.356;2022-07-05T04:06:42;6.45;;;3.22;;
36391;SDS011;22639;42.690;23.356;2022-07-05T04:09:08;3.25;;;2.92;;
36391;SDS011;22639;42.690;23.356;2022-07-05T04:11:33;6.40;;;2.88;;
36391;SDS011;22639;42.690;23.356;2022-07-05T04:13:59;4.88;;;3.20;;
36391;SDS011;22639;42.690;23.356;2022-07-05T04:16:24;9.00;;;4.07;;
36391;SDS011;22639;42.690;23.356;2022-07-05T04:18:51;3.47;;;3.17;;
36391;SDS011;22639;42.690;23.356;2022-07-05T04:21:16;4.13;;;3.53;;
36391;SDS011;22639;42.690;23.356;2022-07-05T04:23:42;3.70;;;2.67;;
36391;SDS011;22639;42.690;23.356;2022-07-05T04:26:07;11.10;;;3.45;;
36391;SDS011;22639;42.690;23.356;2022-07-05T04:28:33;4.15;;;3.42;;
36391;SDS011;22639;42.690;23.356;2022-07-05T04:30:58;4.45;;;2.70;;
36391;SDS011;22639;42.690;23.356;2022-07-05T04:33:24;3.42;;;2.92;;
36391;SDS011;22639;42.690;23.356;2022-07-05T04:35:50;4.00;;;3.13;;
36391;SDS011;22639;42.690;23.356;2022-07-05T04:38:16;4.55;;;3.53;;
36391;SDS011;22639;42.690;23.356;2022-07-05T04:40:41;3.20;;;2.90;;
36391;SDS011;22639;42.690;23.356;2022-07-05T04:43:07;4.43;;;3.10;;
36391;SDS011;22639;42.690;23.356;2022-07-05T04:45:33;5.18;;;3.25;;
36391;SDS011;22639;42.690;23.356;2022-07-05T04:47:59;4.03;;;2.97;;
36391;SDS011;22639;42.690;23.356;2022-07-05T04:50:24;7.53;;;3.22;;
36391;SDS011;22639;42.690;23.356;2022-07-05T04:52:50;6.97;;;3.53;;
36391;SDS011;22639;42.690;23.356;2022-07-05T04:55:15;3.58;;;3.28;;
36391;SDS011;22639;42.690;23.356;2022-07-05T04:57:41;8.60;;;3.72;;
36391;SDS011;22639;42.690;23.356;2022-07-05T05:00:11;9.93;;;4.30;;
36391;SDS011;22639;42.690;23.356;2022-07-05T05:02:38;3.60;;;3.30;;
36391;SDS011;22639;42.690;23.356;2022-07-05T05:05:04;5.40;;;3.00;;
36391;SDS011;22639;42.690;23.356;2022-07-05T05:07:30;4.28;;;3.00;;
36391;SDS011;22639;42.690;23.356;2022-07-05T05:09:56;3.47;;;3.20;;
36391;SDS011;22639;42.690;23.356;2022-07-05T05:12:21;5.80;;;3.75;;
36391;SDS011;22639;42.690;23.356;2022-07-05T05:14:49;4.95;;;3.42;;
36391;SDS011;22639;42.690;23.356;2022-07-05T05:17:15;4.05;;;3.40;;
36391;SDS011;22639;42.690;23.356;2022-07-05T05:19:41;4.20;;;3.75;;
36391;SDS011;22639;42.690;23.356;2022-07-05T05:22:06;4.20;;;3.63;;
36391;SDS011;22639;42.690;23.356;2022-07-05T05:24:32;4.97;;;4.00;;
36391;SDS011;22639;42.690;23.356;2022-07-05T05:27:00;7.43;;;3.95;;
36391;SDS011;22639;42.690;23.356;2022-07-05T05:29:26;6.40;;;3.55;;
36391;SDS011;22639;42.690;23.356;2022-07-05T05:31:52;6.47;;;3.60;;
36391;SDS011;22639;42.690;23.356;2022-07-05T05:34:17;4.97;;;4.18;;
36391;SDS011;22639;42.690;23.356;2022-07-05T05:36:43;4.30;;;3.40;;
36391;SDS011;22639;42.690;23.356;2022-07-05T05:39:08;6.93;;;3.70;;
36391;SDS011;22639;42.690;23.356;2022-07-05T05:41:34;4.20;;;3.65;;
36391;SDS011;22639;42.690;23.356;2022-07-05T05:44:00;6.88;;;3.65;;
36391;SDS011;22639;42.690;23.356;2022-07-05T05:46:27;9.02;;;4.30;;
36391;SDS011;22639;42.690;23.356;2022-07-05T05:48:54;5.43;;;4.22;;
36391;SDS011;22639;42.690;23.356;2022-07-05T05:51:20;4.55;;;3.50;;
36391;SDS011;22639;42.690;23.356;2022-07-05T05:53:45;6.65;;;3.78;;
36391;SDS011;22639;42.690;23.356;2022-07-05T05:56:11;4.57;;;3.95;;
36391;SDS011;22639;42.690;23.356;2022-07-05T05:58:37;5.88;;;4.22;;
36391;SDS011;22639;42.690;23.356;2022-07-05T06:01:03;4.53;;;4.18;;
36391;SDS011;22639;42.690;23.356;2022-07-05T06:03:28;8.68;;;3.95;;
36391;SDS011;22639;42.690;23.356;2022-07-05T06:05:54;9.15;;;4.15;;
36391;SDS011;22639;42.690;23.356;2022-07-05T06:08:20;5.57;;;3.58;;
36391;SDS011;22639;42.690;23.356;2022-07-05T06:10:46;6.32;;;3.97;;
36391;SDS011;22639;42.690;23.356;2022-07-05T06:13:12;4.40;;;4.07;;
36391;SDS011;22639;42.690;23.356;2022-07-05T06:15:39;4.95;;;3.90;;
36391;SDS011;22639;42.690;23.356;2022-07-05T06:18:06;6.03;;;4.30;;
36391;SDS011;22639;42.690;23.356;2022-07-05T06:20:33;4.30;;;3.90;;
36391;SDS011;22639;42.690;23.356;2022-07-05T06:23:00;8.82;;;4.00;;
36391;SDS011;22639;42.690;23.356;2022-07-05T06:25:27;5.05;;;4.20;;
36391;SDS011;22639;42.690;23.356;2022-07-05T06:27:57;8.13;;;4.00;;
36391;SDS011;22639;42.690;23.356;2022-07-05T06:30:27;6.65;;;4.32;;
36391;SDS011;22639;42.690;23.356;2022-07-05T06:32:54;4.75;;;4.20;;
36391;SDS011;22639;42.690;23.356;2022-07-05T06:35:21;4.30;;;3.90;;
36391;SDS011;22639;42.690;23.356;2022-07-05T06:37:52;7.80;;;4.00;;
36391;SDS011;22639;42.690;23.356;2022-07-05T06:40:29;5.10;;;3.88;;
36391;SDS011;22639;42.690;23.356;2022-07-05T06:42:57;4.70;;;4.20;;
36391;SDS011;22639;42.690;23.356;2022-07-05T06:45:25;6.10;;;3.78;;
36391;SDS011;22639;42.690;23.356;2022-07-05T06:48:07;4.90;;;4.18;;
36391;SDS011;22639;42.690;23.356;2022-07-05T06:50:35;5.13;;;4.05;;
36391;SDS011;22639;42.690;23.356;2022-07-05T06:53:03;5.82;;;4.15;;
36391;SDS011;22639;42.690;23.356;2022-07-05T06:55:30;4.20;;;3.80;;
36391;SDS011;22639;42.690;23.356;2022-07-05T06:57:58;4.75;;;4.38;;
36391;SDS011;22639;42.690;23.356;2022-07-05T07:00:28;4.20;;;3.78;;
36391;SDS011;22639;42.690;23.356;2022-07-05T07:02:54;4.85;;;3.50;;
36391;SDS011;22639;42.690;23.356;2022-07-05T07:05:20;3.85;;;3.53;;
36391;SDS011;22639;42.690;23.356;2022-07-05T07:07:46;5.45;;;3.72;;
36391;SDS011;22639;42.690;23.356;2022-07-05T07:10:30;3.45;;;3.15;;
36391;SDS011;22639;42.690;23.356;2022-07-05T07:12:56;5.32;;;3.60;;
36391;SDS011;22639;42.690;23.356;2022-07-05T07:15:22;6.20;;;4.35;;
36391;SDS011;22639;42.690;23.356;2022-07-05T07:17:47;4.30;;;4.00;;
36391;SDS011;22639;42.690;23.356;2022-07-05T07:20:13;5.90;;;3.55;;
36391;SDS011;22639;42.690;23.356;2022-07-05T07:22:38;7.93;;;4.05;;
36391;SDS011;22639;42.690;23.356;2022-07-05T07:25:04;6.18;;;4.07;;
36391;SDS011;22639;42.690;23.356;2022-07-05T07:27:31;3.75;;;3.47;;
36391;SDS011;22639;42.690;23.356;2022-07-05T07:29:57;4.28;;;3.85;;
36391;SDS011;22639;42.690;23.356;2022-07-05T07:32:22;4.40;;;3.35;;
36391;SDS011;22639;42.690;23.356;2022-07-05T07:34:48;5.22;;;4.35;;
36391;SDS011;22639;42.690;23.356;2022-07-05T07:37:13;7.40;;;4.18;;
36391;SDS011;22639;42.690;23.356;2022-07-05T07:39:39;5.53;;;3.60;;
36391;SDS011;22639;42.690;23.356;2022-07-05T07:42:06;5.25;;;3.50;;
36391;SDS011;22639;42.690;23.356;2022-07-05T07:44:32;4.63;;;3.90;;
36391;SDS011;22639;42.690;23.356;2022-07-05T07:46:58;5.95;;;5.35;;
36391;SDS011;22639;42.690;23.356;2022-07-05T07:49:23;5.00;;;4.18;;
36391;SDS011;22639;42.690;23.356;2022-07-05T07:51:49;3.75;;;3.45;;
36391;SDS011;22639;42.690;23.356;2022-07-05T07:54:16;3.90;;;3.60;;
36391;SDS011;22639;42.690;23.356;2022-07-05T07:56:42;4.82;;;3.88;;
36391;SDS011;22639;42.690;23.356;2022-07-05T07:59:07;5.35;;;3.85;;
36391;SDS011;22639;42.690;23.356;2022-07-05T08:01:33;4.82;;;4.25;;
36391;SDS011;22639;42.690;23.356;2022-07-05T08:03:59;3.90;;;3.60;;
36391;SDS011;22639;42.690;23.356;2022-07-05T08:06:24;4.82;;;4.32;;
36391;SDS011;22639;42.690;23.356;2022-07-05T08:08:49;4.43;;;3.60;;
36391;SDS011;22639;42.690;23.356;2022-07-05T08:11:15;3.92;;;3.58;;
36391;SDS011;22639;42.690;23.356;2022-07-05T08:13:41;5.30;;;3.90;;
36391;SDS011;22639;42.690;23.356;2022-07-05T08:16:07;4.72;;;3.97;;
36391;SDS011;22639;42.690;23.356;2022-07-05T08:18:33;8.20;;;4.00;;
36391;SDS011;22639;42.690;23.356;2022-07-05T08:21:17;4.90;;;3.80;;
36391;SDS011;22639;42.690;23.356;2022-07-05T08:24:03;5.00;;;4.43;;
36391;SDS011;22639;42.690;23.356;2022-07-05T08:26:29;5.00;;;4.35;;
36391;SDS011;22639;42.690;23.356;2022-07-05T08:28:58;4.97;;;3.95;;
36391;SDS011;22639;42.690;23.356;2022-07-05T08:31:25;4.00;;;3.40;;
36391;SDS011;22639;42.690;23.356;2022-07-05T08:33:51;4.00;;;3.58;;
36391;SDS011;22639;42.690;23.356;2022-07-05T08:36:17;4.53;;;4.07;;
36391;SDS011;22639;42.690;23.356;2022-07-05T08:38:42;4.38;;;3.90;;
36391;SDS011;22639;42.690;23.356;2022-07-05T08:41:08;7.10;;;4.22;;
36391;SDS011;22639;42.690;23.356;2022-07-05T08:43:35;3.83;;;3.38;;
36391;SDS011;22639;42.690;23.356;2022-07-05T08:46:02;4.13;;;3.75;;
36391;SDS011;22639;42.690;23.356;2022-07-05T08:48:29;5.50;;;4.15;;
36391;SDS011;22639;42.690;23.356;2022-07-05T08:50:55;4.70;;;4.35;;
36391;SDS011;22639;42.690;23.356;2022-07-05T08:53:21;4.28;;;3.90;;
36391;SDS011;22639;42.690;23.356;2022-07-05T08:55:47;5.97;;;4.30;;
36391;SDS011;22639;42.690;23.356;2022-07-05T08:58:14;4.95;;;4.45;;
36391;SDS011;22639;42.690;23.356;2022-07-05T09:00:40;5.88;;;4.43;;
36391;SDS011;22639;42.690;23.356;2022-07-05T09:03:07;4.13;;;3.70;;
36391;SDS011;22639;42.690;23.356;2022-07-05T09:05:34;4.30;;;3.92;;
36391;SDS011;22639;42.690;23.356;2022-07-05T09:08:06;5.05;;;4.43;;
36391;SDS011;22639;42.690;23.356;2022-07-05T09:10:34;4.60;;;3.97;;
36391;SDS011;22639;42.690;23.356;2022-07-05T09:13:03;4.22;;;3.83;;
36391;SDS011;22639;42.690;23.356;2022-07-05T09:15:28;5.43;;;4.18;;
36391;SDS011;22639;42.690;23.356;2022-07-05T09:17:54;4.65;;;3.70;;
36391;SDS011;22639;42.690;23.356;2022-07-05T09:20:19;3.42;;;3.22;;
36391;SDS011;22639;42.690;23.356;2022-07-05T09:22:49;4.63;;;4.22;;
36391;SDS011;22639;42.690;23.356;2022-07-05T09:25:20;4.47;;;3.70;;
36391;SDS011;22639;42.690;23.356;2022-07-05T09:27:47;3.40;;;3.10;;
36391;SDS011;22639;42.690;23.356;2022-07-05T09:35:37;6.43;;;3.67;;
36391;SDS011;22639;42.690;23.356;2022-07-05T09:38:18;4.55;;;3.80;;
36391;SDS011;22639;42.690;23.356;2022-07-05T09:43:18;4.68;;;4.20;;
36391;SDS011;22639;42.690;23.356;2022-07-05T09:48:19;4.40;;;4.00;;
36391;SDS011;22639;42.690;23.356;2022-07-05T09:50:45;4.90;;;4.35;;
36391;SDS011;22639;42.690;23.356;2022-07-05T09:53:13;4.07;;;3.78;;
36391;SDS011;22639;42.690;23.356;2022-07-05T09:55:38;5.22;;;4.78;;
36391;SDS011;22639;42.690;23.356;2022-07-05T09:58:05;4.30;;;3.95;;
36391;SDS011;22639;42.690;23.356;2022-07-05T10:00:30;5.15;;;4.80;;
36391;SDS011;22639;42.690;23.356;2022-07-05T10:02:56;4.10;;;3.80;;
36391;SDS011;22639;42.690;23.356;2022-07-05T10:05:29;5.32;;;4.80;;
36391;SDS011;22639;42.690;23.356;2022-07-05T10:07:56;4.88;;;4.47;;
36391;SDS011;22639;42.690;23.356;2022-07-05T10:10:24;5.22;;;4.82;;
36391;SDS011;22639;42.690;23.356;2022-07-05T10:12:57;5.72;;;5.22;;
36391;SDS011;22639;42.690;23.356;2022-07-05T10:15:24;5.15;;;4.75;;
36391;SDS011;22639;42.690;23.356;2022-07-05T10:17:59;5.25;;;4.30;;
36391;SDS011;22639;42.690;23.356;2022-07-05T10:25:38;5.57;;;5.07;;
36391;SDS011;22639;42.690;23.356;2022-07-05T10:28:06;6.13;;;5.35;;
36391;SDS011;22639;42.690;23.356;2022-07-05T10:30:33;6.05;;;5.47;;
36391;SDS011;22639;42.690;23.356;2022-07-05T10:33:01;5.75;;;5.25;;
36391;SDS011;22639;42.690;23.356;2022-07-05T10:35:28;5.68;;;5.10;;
36391;SDS011;22639;42.690;23.356;2022-07-05T10:37:54;5.35;;;5.00;;
36391;SDS011;22639;42.690;23.356;2022-07-05T10:40:21;5.65;;;5.15;;
36391;SDS011;22639;42.690;23.356;2022-07-05T10:42:48;5.63;;;5.18;;
36391;SDS011;22639;42.690;23.356;2022-07-05T10:53:13;5.07;;;4.68;;
36391;SDS011;22639;42.690;23.356;2022-07-05T10:56:25;5.40;;;4.93;;
36391;SDS011;22639;42.690;23.356;2022-07-05T10:58:34;6.25;;;5.00;;
36391;SDS011;22639;42.690;23.356;2022-07-05T11:03:46;5.88;;;5.38;;
36391;SDS011;22639;42.690;23.356;2022-07-05T11:06:25;5.35;;;4.95;;
36391;SDS011;22639;42.690;23.356;2022-07-05T11:11:40;5.10;;;4.70;;
36391;SDS011;22639;42.690;23.356;2022-07-05T11:22:24;6.00;;;5.43;;
36391;SDS011;22639;42.690;23.356;2022-07-05T11:24:50;4.90;;;4.53;;
36391;SDS011;22639;42.690;23.356;2022-07-05T11:27:16;5.43;;;4.93;;
36391;SDS011;22639;42.690;23.356;2022-07-05T11:32:12;5.38;;;4.88;;
36391;SDS011;22639;42.690;23.356;2022-07-05T11:34:40;5.90;;;5.25;;
36391;SDS011;22639;42.690;23.356;2022-07-05T11:39:44;5.32;;;4.80;;
36391;SDS011;22639;42.690;23.356;2022-07-05T11:42:20;5.57;;;5.07;;
36391;SDS011;22639;42.690;23.356;2022-07-05T11:44:49;5.20;;;4.70;;
36391;SDS011;22639;42.690;23.356;2022-07-05T11:47:15;5.80;;;5.30;;
36391;SDS011;22639;42.690;23.356;2022-07-05T11:49:43;5.35;;;4.85;;
36391;SDS011;22639;42.690;23.356;2022-07-05T11:52:19;6.20;;;5.55;;
36391;SDS011;22639;42.690;23.356;2022-07-05T11:54:50;5.38;;;4.95;;
36391;SDS011;22639;42.690;23.356;2022-07-05T11:57:15;10.32;;;6.28;;
36391;SDS011;22639;42.690;23.356;2022-07-05T11:59:43;6.47;;;5.88;;
36391;SDS011;22639;42.690;23.356;2022-07-05T12:02:08;8.73;;;4.95;;
36391;SDS011;22639;42.690;23.356;2022-07-05T12:04:35;5.57;;;5.18;;
36391;SDS011;22639;42.690;23.356;2022-07-05T12:07:00;6.10;;;5.60;;
36391;SDS011;22639;42.690;23.356;2022-07-05T12:09:30;5.88;;;5.40;;
36391;SDS011;22639;42.690;23.356;2022-07-05T12:12:19;5.57;;;4.88;;
36391;SDS011;22639;42.690;23.356;2022-07-05T12:15:07;5.65;;;5.15;;
36391;SDS011;22639;42.690;23.356;2022-07-05T12:17:34;6.63;;;6.13;;
36391;SDS011;22639;42.690;23.356;2022-07-05T12:20:00;6.03;;;5.53;;
36391;SDS011;22639;42.690;23.356;2022-07-05T12:22:30;6.75;;;5.38;;
36391;SDS011;22639;42.690;23.356;2022-07-05T12:25:00;6.88;;;5.68;;
36391;SDS011;22639;42.690;23.356;2022-07-05T12:27:27;5.35;;;4.95;;
36391;SDS011;22639;42.690;23.356;2022-07-05T12:29:54;6.28;;;5.57;;
36391;SDS011;22639;42.690;23.356;2022-07-05T12:32:20;6.15;;;5.55;;
36391;SDS011;22639;42.690;23.356;2022-07-05T12:34:46;5.50;;;5.07;;
36391;SDS011;22639;42.690;23.356;2022-07-05T12:37:19;6.75;;;5.43;;
36391;SDS011;22639;42.690;23.356;2022-07-05T12:39:46;9.65;;;6.18;;
36391;SDS011;22639;42.690;23.356;2022-07-05T12:42:29;8.15;;;6.15;;
36391;SDS011;22639;42.690;23.356;2022-07-05T12:45:11;6.30;;;5.55;;
36391;SDS011;22639;42.690;23.356;2022-07-05T12:47:54;6.20;;;5.70;;
36391;SDS011;22639;42.690;23.356;2022-07-05T12:50:25;6.10;;;5.55;;
36391;SDS011;22639;42.690;23.356;2022-07-05T12:53:03;5.88;;;5.30;;
36391;SDS011;22639;42.690;23.356;2022-07-05T12:55:57;5.85;;;5.32;;
36391;SDS011;22639;42.690;23.356;2022-07-05T12:58:50;10.07;;;5.72;;
36391;SDS011;22639;42.690;23.356;2022-07-05T13:01:23;5.88;;;5.38;;
36391;SDS011;22639;42.690;23.356;2022-07-05T13:12:07;6.30;;;5.80;;
36391;SDS011;22639;42.690;23.356;2022-07-05T13:14:35;5.82;;;5.32;;
36391;SDS011;22639;42.690;23.356;2022-07-05T13:17:02;6.40;;;5.80;;
36391;SDS011;22639;42.690;23.356;2022-07-05T13:19:28;9.48;;;5.15;;
36391;SDS011;22639;42.690;23.356;2022-07-05T13:21:54;7.82;;;5.78;;
36391;SDS011;22639;42.690;23.356;2022-07-05T13:24:19;8.25;;;5.97;;
36391;SDS011;22639;42.690;23.356;2022-07-05T13:26:45;7.95;;;6.15;;
36391;SDS011;22639;42.690;23.356;2022-07-05T13:29:10;6.38;;;5.78;;
36391;SDS011;22639;42.690;23.356;2022-07-05T13:31:36;6.47;;;5.95;;
36391;SDS011;22639;42.690;23.356;2022-07-05T13:34:01;7.15;;;6.43;;
36391;SDS011;22639;42.690;23.356;2022-07-05T13:36:27;8.05;;;6.00;;
36391;SDS011;22639;42.690;23.356;2022-07-05T13:38:52;6.28;;;5.78;;
36391;SDS011;22639;42.690;23.356;2022-07-05T13:41:18;6.60;;;6.00;;
36391;SDS011;22639;42.690;23.356;2022-07-05T13:43:44;6.03;;;5.50;;
36391;SDS011;22639;42.690;23.356;2022-07-05T13:46:10;6.82;;;6.07;;
36391;SDS011;22639;42.690;23.356;2022-07-05T13:48:36;7.68;;;6.70;;
36391;SDS011;22639;42.690;23.356;2022-07-05T13:51:02;6.90;;;6.30;;
36391;SDS011;22639;42.690;23.356;2022-07-05T13:53:29;6.45;;;5.93;;
36391;SDS011;22639;42.690;23.356;2022-07-05T13:55:55;6.63;;;5.90;;
36391;SDS011;22639;42.690;23.356;2022-07-05T13:58:20;6.10;;;5.60;;
36391;SDS011;22639;42.690;23.356;2022-07-05T14:00:46;6.65;;;5.80;;
36391;SDS011;22639;42.690;23.356;2022-07-05T14:03:11;7.55;;;5.82;;
36391;SDS011;22639;42.690;23.356;2022-07-05T14:05:37;6.05;;;5.45;;
36391;SDS011;22639;42.690;23.356;2022-07-05T14:08:03;8.43;;;6.05;;
36391;SDS011;22639;42.690;23.356;2022-07-05T14:10:29;6.80;;;6.20;;
36391;SDS011;22639;42.690;23.356;2022-07-05T14:12:54;6.90;;;6.20;;
36391;SDS011;22639;42.690;23.356;2022-07-05T14:15:20;6.38;;;5.78;;
36391;SDS011;22639;42.690;23.356;2022-07-05T14:17:45;5.75;;;5.25;;
36391;SDS011;22639;42.690;23.356;2022-07-05T14:20:11;6.80;;;6.18;;
36391;SDS011;22639;42.690;23.356;2022-07-05T14:22:36;6.93;;;5.97;;
36391;SDS011;22639;42.690;23.356;2022-07-05T14:25:02;6.07;;;5.47;;
36391;SDS011;22639;42.690;23.356;2022-07-05T14:27:27;8.55;;;5.20;;
36391;SDS011;22639;42.690;23.356;2022-07-05T14:29:53;5.40;;;4.90;;
36391;SDS011;22639;42.690;23.356;2022-07-05T14:32:18;6.32;;;5.60;;
36391;SDS011;22639;42.690;23.356;2022-07-05T14:34:44;6.65;;;6.05;;
36391;SDS011;22639;42.690;23.356;2022-07-05T14:37:09;6.93;;;6.07;;
36391;SDS011;22639;42.690;23.356;2022-07-05T14:39:34;7.05;;;6.07;;
36391;SDS011;22639;42.690;23.356;2022-07-05T14:42:00;8.90;;;5.82;;
36391;SDS011;22639;42.690;23.356;2022-07-05T14:44:27;7.45;;;5.97;;
36391;SDS011;22639;42.690;23.356;2022-07-05T14:46:53;8.40;;;6.38;;
36391;SDS011;22639;42.690;23.356;2022-07-05T14:49:19;7.22;;;5.80;;
36391;SDS011;22639;42.690;23.356;2022-07-05T14:51:45;5.88;;;5.38;;
36391;SDS011;22639;42.690;23.356;2022-07-05T14:54:10;6.95;;;5.55;;
36391;SDS011;22639;42.690;23.356;2022-07-05T14:56:36;6.03;;;5.53;;
36391;SDS011;22639;42.690;23.356;2022-07-05T14:59:01;6.50;;;5.90;;
36391;SDS011;22639;42.690;23.356;2022-07-05T15:01:27;6.75;;;5.75;;
36391;SDS011;22639;42.690;23.356;2022-07-05T15:03:52;5.55;;;5.05;;
36391;SDS011;22639;42.690;23.356;2022-07-05T15:06:18;6.22;;;5.70;;
36391;SDS011;22639;42.690;23.356;2022-07-05T15:08:43;7.20;;;5.45;;
36391;SDS011;22639;42.690;23.356;2022-07-05T15:11:09;6.80;;;6.00;;
36391;SDS011;22639;42.690;23.356;2022-07-05T15:13:34;6.40;;;5.90;;
36391;SDS011;22639;42.690;23.356;2022-07-05T15:16:00;7.70;;;6.13;;
36391;SDS011;22639;42.690;23.356;2022-07-05T15:18:26;5.80;;;5.30;;
36391;SDS011;22639;42.690;23.356;2022-07-05T15:20:52;5.80;;;5.15;;
36391;SDS011;22639;42.690;23.356;2022-07-05T15:23:21;5.38;;;4.97;;